sensor_id;sensor_type;location;lat;lon;timestamp;P1;durP1;ratioP1;P2;durP2;ratioP2
27728;SDS011;15126;42.186;24.340;2023-04-03T00:01:39;2.80;;;2.53;;
27728;SDS011;15126;42.186;24.340;2023-04-03T00:04:06;3.97;;;3.30;;
27728;SDS011;15126;42.186;24.340;2023-04-03T00:06:33;3.63;;;3.33;;
27728;SDS011;15126;42.186;24.340;2023-04-03T00:09:00;4.03;;;3.70;;
27728;SDS011;15126;42.186;24.340;2023-04-03T00:11:27;5.20;;;4.13;;
27728;SDS011;15126;42.186;24.340;2023-04-03T00:13:54;4.03;;;3.63;;
27728;SDS011;15126;42.186;24.340;2023-04-03T00:16:22;3.77;;;3.47;;
27728;SDS011;15126;42.186;24.340;2023-04-03T00:18:49;5.70;;;3.83;;
27728;SDS011;15126;42.186;24.340;2023-04-03T00:21:16;3.37;;;3.07;;
27728;SDS011;15126;42.186;24.340;2023-04-03T00:23:43;3.30;;;3.00;;
27728;SDS011;15126;42.186;24.340;2023-04-03T00:26:09;3.97;;;3.17;;
27728;SDS011;15126;42.186;24.340;2023-04-03T00:28:36;4.77;;;3.90;;
27728;SDS011;15126;42.186;24.340;2023-04-03T00:31:03;4.97;;;3.40;;
27728;SDS011;15126;42.186;24.340;2023-04-03T00:33:31;3.80;;;3.40;;
27728;SDS011;15126;42.186;24.340;2023-04-03T00:35:58;3.00;;;2.70;;
27728;SDS011;15126;42.186;24.340;2023-04-03T00:38:25;5.13;;;3.10;;
27728;SDS011;15126;42.186;24.340;2023-04-03T00:40:52;3.77;;;3.07;;
27728;SDS011;15126;42.186;24.340;2023-04-03T00:43:20;5.17;;;3.27;;
27728;SDS011;15126;42.186;24.340;2023-04-03T00:45:49;4.27;;;2.90;;
27728;SDS011;15126;42.186;24.340;2023-04-03T00:48:17;5.47;;;3.87;;
27728;SDS011;15126;42.186;24.340;2023-04-03T00:50:48;5.17;;;2.77;;
27728;SDS011;15126;42.186;24.340;2023-04-03T00:53:17;5.37;;;3.00;;
27728;SDS011;15126;42.186;24.340;2023-04-03T00:55:45;3.10;;;2.73;;
27728;SDS011;15126;42.186;24.340;2023-04-03T00:58:14;4.20;;;3.30;;
27728;SDS011;15126;42.186;24.340;2023-04-03T01:00:46;3.17;;;2.33;;
27728;SDS011;15126;42.186;24.340;2023-04-03T01:03:21;4.43;;;2.57;;
27728;SDS011;15126;42.186;24.340;2023-04-03T01:05:49;5.10;;;3.03;;
27728;SDS011;15126;42.186;24.340;2023-04-03T01:08:16;4.30;;;3.80;;
27728;SDS011;15126;42.186;24.340;2023-04-03T01:10:43;3.90;;;3.07;;
27728;SDS011;15126;42.186;24.340;2023-04-03T01:13:20;3.83;;;3.43;;
27728;SDS011;15126;42.186;24.340;2023-04-03T01:15:50;6.87;;;4.03;;
27728;SDS011;15126;42.186;24.340;2023-04-03T01:18:17;4.77;;;3.23;;
27728;SDS011;15126;42.186;24.340;2023-04-03T01:24:02;4.60;;;2.90;;
27728;SDS011;15126;42.186;24.340;2023-04-03T01:26:37;4.13;;;2.93;;
27728;SDS011;15126;42.186;24.340;2023-04-03T01:29:05;3.60;;;3.27;;
27728;SDS011;15126;42.186;24.340;2023-04-03T01:31:41;4.40;;;2.93;;
27728;SDS011;15126;42.186;24.340;2023-04-03T01:34:13;4.43;;;3.00;;
27728;SDS011;15126;42.186;24.340;2023-04-03T01:36:39;3.70;;;2.87;;
27728;SDS011;15126;42.186;24.340;2023-04-03T01:39:06;8.37;;;3.30;;
27728;SDS011;15126;42.186;24.340;2023-04-03T01:41:33;6.60;;;2.70;;
27728;SDS011;15126;42.186;24.340;2023-04-03T01:44:00;2.57;;;2.33;;
27728;SDS011;15126;42.186;24.340;2023-04-03T01:46:27;2.50;;;2.30;;
27728;SDS011;15126;42.186;24.340;2023-04-03T01:48:55;7.70;;;3.43;;
27728;SDS011;15126;42.186;24.340;2023-04-03T01:51:22;3.23;;;2.90;;
27728;SDS011;15126;42.186;24.340;2023-04-03T01:53:49;5.00;;;2.67;;
27728;SDS011;15126;42.186;24.340;2023-04-03T01:56:16;3.13;;;2.50;;
27728;SDS011;15126;42.186;24.340;2023-04-03T01:58:43;2.10;;;2.00;;
27728;SDS011;15126;42.186;24.340;2023-04-03T02:01:10;2.60;;;2.10;;
27728;SDS011;15126;42.186;24.340;2023-04-03T02:03:37;2.50;;;2.30;;
27728;SDS011;15126;42.186;24.340;2023-04-03T02:06:05;3.67;;;2.67;;
27728;SDS011;15126;42.186;24.340;2023-04-03T02:08:32;4.00;;;3.33;;
27728;SDS011;15126;42.186;24.340;2023-04-03T02:10:59;3.67;;;2.67;;
27728;SDS011;15126;42.186;24.340;2023-04-03T02:13:26;5.57;;;3.63;;
27728;SDS011;15126;42.186;24.340;2023-04-03T02:15:53;4.20;;;3.33;;
27728;SDS011;15126;42.186;24.340;2023-04-03T02:18:20;3.97;;;2.70;;
27728;SDS011;15126;42.186;24.340;2023-04-03T02:20:46;7.53;;;2.53;;
27728;SDS011;15126;42.186;24.340;2023-04-03T02:23:15;3.73;;;3.43;;
27728;SDS011;15126;42.186;24.340;2023-04-03T02:25:41;6.47;;;3.00;;
27728;SDS011;15126;42.186;24.340;2023-04-03T02:28:08;8.73;;;3.30;;
27728;SDS011;15126;42.186;24.340;2023-04-03T02:30:35;4.37;;;3.83;;
27728;SDS011;15126;42.186;24.340;2023-04-03T02:33:02;2.30;;;2.10;;
27728;SDS011;15126;42.186;24.340;2023-04-03T02:35:29;2.77;;;2.50;;
27728;SDS011;15126;42.186;24.340;2023-04-03T02:37:55;3.80;;;2.53;;
27728;SDS011;15126;42.186;24.340;2023-04-03T02:40:24;2.87;;;2.47;;
27728;SDS011;15126;42.186;24.340;2023-04-03T02:42:50;3.57;;;3.00;;
27728;SDS011;15126;42.186;24.340;2023-04-03T02:45:17;4.07;;;2.83;;
27728;SDS011;15126;42.186;24.340;2023-04-03T02:47:44;5.00;;;2.80;;
27728;SDS011;15126;42.186;24.340;2023-04-03T02:50:11;4.50;;;3.07;;
27728;SDS011;15126;42.186;24.340;2023-04-03T02:52:38;5.73;;;3.07;;
27728;SDS011;15126;42.186;24.340;2023-04-03T02:55:05;4.70;;;3.40;;
27728;SDS011;15126;42.186;24.340;2023-04-03T02:57:34;4.90;;;3.23;;
27728;SDS011;15126;42.186;24.340;2023-04-03T03:00:01;5.90;;;3.90;;
27728;SDS011;15126;42.186;24.340;2023-04-03T03:02:31;3.73;;;3.37;;
27728;SDS011;15126;42.186;24.340;2023-04-03T03:04:58;7.77;;;3.87;;
27728;SDS011;15126;42.186;24.340;2023-04-03T03:07:25;10.67;;;4.53;;
27728;SDS011;15126;42.186;24.340;2023-04-03T03:09:51;9.40;;;4.33;;
27728;SDS011;15126;42.186;24.340;2023-04-03T03:12:18;8.80;;;4.27;;
27728;SDS011;15126;42.186;24.340;2023-04-03T03:14:48;5.77;;;3.40;;
27728;SDS011;15126;42.186;24.340;2023-04-03T03:17:18;7.43;;;3.50;;
27728;SDS011;15126;42.186;24.340;2023-04-03T03:19:45;8.07;;;3.90;;
27728;SDS011;15126;42.186;24.340;2023-04-03T03:22:12;9.73;;;4.30;;
27728;SDS011;15126;42.186;24.340;2023-04-03T03:24:38;5.97;;;4.93;;
27728;SDS011;15126;42.186;24.340;2023-04-03T03:27:05;5.00;;;4.47;;
27728;SDS011;15126;42.186;24.340;2023-04-03T03:29:32;6.37;;;4.73;;
27728;SDS011;15126;42.186;24.340;2023-04-03T03:32:00;8.10;;;3.90;;
27728;SDS011;15126;42.186;24.340;2023-04-03T03:34:29;6.27;;;4.07;;
27728;SDS011;15126;42.186;24.340;2023-04-03T03:36:56;5.47;;;4.60;;
27728;SDS011;15126;42.186;24.340;2023-04-03T03:39:23;10.97;;;5.73;;
27728;SDS011;15126;42.186;24.340;2023-04-03T03:41:50;5.50;;;5.00;;
27728;SDS011;15126;42.186;24.340;2023-04-03T03:44:18;7.17;;;4.53;;
27728;SDS011;15126;42.186;24.340;2023-04-03T03:46:45;7.30;;;5.60;;
27728;SDS011;15126;42.186;24.340;2023-04-03T03:49:13;7.80;;;5.27;;
27728;SDS011;15126;42.186;24.340;2023-04-03T03:51:40;5.50;;;5.07;;
27728;SDS011;15126;42.186;24.340;2023-04-03T03:54:07;8.67;;;5.57;;
27728;SDS011;15126;42.186;24.340;2023-04-03T03:56:34;6.77;;;5.70;;
27728;SDS011;15126;42.186;24.340;2023-04-03T03:59:00;9.67;;;5.70;;
27728;SDS011;15126;42.186;24.340;2023-04-03T04:01:27;7.83;;;5.73;;
27728;SDS011;15126;42.186;24.340;2023-04-03T04:03:55;9.67;;;5.67;;
27728;SDS011;15126;42.186;24.340;2023-04-03T04:06:23;8.90;;;5.07;;
27728;SDS011;15126;42.186;24.340;2023-04-03T04:08:50;8.50;;;5.57;;
27728;SDS011;15126;42.186;24.340;2023-04-03T04:11:17;25.50;;;10.60;;
27728;SDS011;15126;42.186;24.340;2023-04-03T04:13:44;19.83;;;11.73;;
27728;SDS011;15126;42.186;24.340;2023-04-03T04:16:11;10.93;;;9.23;;
27728;SDS011;15126;42.186;24.340;2023-04-03T04:18:38;10.43;;;9.03;;
27728;SDS011;15126;42.186;24.340;2023-04-03T04:21:04;9.30;;;8.40;;
27728;SDS011;15126;42.186;24.340;2023-04-03T04:23:32;14.33;;;9.73;;
27728;SDS011;15126;42.186;24.340;2023-04-03T04:25:59;9.33;;;8.33;;
27728;SDS011;15126;42.186;24.340;2023-04-03T04:28:26;18.33;;;9.33;;
27728;SDS011;15126;42.186;24.340;2023-04-03T04:30:53;29.30;;;11.43;;
27728;SDS011;15126;42.186;24.340;2023-04-03T04:33:20;14.43;;;10.63;;
27728;SDS011;15126;42.186;24.340;2023-04-03T04:35:47;15.37;;;9.63;;
27728;SDS011;15126;42.186;24.340;2023-04-03T04:38:15;13.60;;;10.10;;
27728;SDS011;15126;42.186;24.340;2023-04-03T04:40:43;12.33;;;9.90;;
27728;SDS011;15126;42.186;24.340;2023-04-03T04:43:10;15.40;;;9.87;;
27728;SDS011;15126;42.186;24.340;2023-04-03T04:45:39;14.73;;;9.70;;
27728;SDS011;15126;42.186;24.340;2023-04-03T04:48:06;16.23;;;9.23;;
27728;SDS011;15126;42.186;24.340;2023-04-03T04:50:33;16.43;;;10.50;;
27728;SDS011;15126;42.186;24.340;2023-04-03T04:53:00;25.90;;;12.37;;
27728;SDS011;15126;42.186;24.340;2023-04-03T04:55:26;9.80;;;8.77;;
27728;SDS011;15126;42.186;24.340;2023-04-03T04:57:55;7.40;;;6.33;;
27728;SDS011;15126;42.186;24.340;2023-04-03T05:00:21;8.77;;;4.50;;
27728;SDS011;15126;42.186;24.340;2023-04-03T05:02:48;6.40;;;4.80;;
27728;SDS011;15126;42.186;24.340;2023-04-03T05:05:15;4.33;;;3.93;;
27728;SDS011;15126;42.186;24.340;2023-04-03T05:07:42;4.53;;;4.00;;
27728;SDS011;15126;42.186;24.340;2023-04-03T05:10:09;4.40;;;3.97;;
27728;SDS011;15126;42.186;24.340;2023-04-03T05:12:36;4.43;;;4.03;;
27728;SDS011;15126;42.186;24.340;2023-04-03T05:15:05;4.47;;;4.07;;
27728;SDS011;15126;42.186;24.340;2023-04-03T05:17:33;7.00;;;4.03;;
27728;SDS011;15126;42.186;24.340;2023-04-03T05:20:00;5.00;;;4.13;;
27728;SDS011;15126;42.186;24.340;2023-04-03T05:22:26;8.83;;;5.23;;
27728;SDS011;15126;42.186;24.340;2023-04-03T05:24:53;9.50;;;4.43;;
27728;SDS011;15126;42.186;24.340;2023-04-03T05:27:20;6.17;;;4.07;;
27728;SDS011;15126;42.186;24.340;2023-04-03T05:29:56;10.90;;;6.03;;
27728;SDS011;15126;42.186;24.340;2023-04-03T05:32:24;7.27;;;4.70;;
27728;SDS011;15126;42.186;24.340;2023-04-03T05:34:52;6.80;;;5.37;;
27728;SDS011;15126;42.186;24.340;2023-04-03T05:37:19;9.20;;;5.97;;
27728;SDS011;15126;42.186;24.340;2023-04-03T05:39:46;8.07;;;5.13;;
27728;SDS011;15126;42.186;24.340;2023-04-03T05:42:13;6.83;;;6.03;;
27728;SDS011;15126;42.186;24.340;2023-04-03T05:44:41;9.50;;;6.20;;
27728;SDS011;15126;42.186;24.340;2023-04-03T05:47:08;6.27;;;5.67;;
27728;SDS011;15126;42.186;24.340;2023-04-03T05:49:36;5.90;;;5.30;;
27728;SDS011;15126;42.186;24.340;2023-04-03T05:52:05;9.60;;;5.50;;
27728;SDS011;15126;42.186;24.340;2023-04-03T05:54:32;7.20;;;5.73;;
27728;SDS011;15126;42.186;24.340;2023-04-03T05:56:59;26.83;;;17.30;;
27728;SDS011;15126;42.186;24.340;2023-04-03T05:59:26;18.33;;;14.33;;
27728;SDS011;15126;42.186;24.340;2023-04-03T06:01:53;14.50;;;8.33;;
27728;SDS011;15126;42.186;24.340;2023-04-03T06:04:20;11.27;;;7.17;;
27728;SDS011;15126;42.186;24.340;2023-04-03T06:06:48;11.20;;;7.37;;
27728;SDS011;15126;42.186;24.340;2023-04-03T06:09:17;7.50;;;6.20;;
27728;SDS011;15126;42.186;24.340;2023-04-03T06:11:46;9.83;;;6.87;;
27728;SDS011;15126;42.186;24.340;2023-04-03T06:14:12;13.10;;;5.97;;
27728;SDS011;15126;42.186;24.340;2023-04-03T06:16:39;10.80;;;7.00;;
27728;SDS011;15126;42.186;24.340;2023-04-03T06:19:06;22.17;;;10.73;;
27728;SDS011;15126;42.186;24.340;2023-04-03T06:21:35;11.47;;;7.97;;
27728;SDS011;15126;42.186;24.340;2023-04-03T06:24:06;13.50;;;8.67;;
27728;SDS011;15126;42.186;24.340;2023-04-03T06:26:33;12.00;;;8.03;;
27728;SDS011;15126;42.186;24.340;2023-04-03T06:29:01;24.23;;;9.47;;
27728;SDS011;15126;42.186;24.340;2023-04-03T06:31:28;16.40;;;8.47;;
27728;SDS011;15126;42.186;24.340;2023-04-03T06:33:54;11.43;;;7.97;;
27728;SDS011;15126;42.186;24.340;2023-04-03T06:36:21;10.83;;;7.23;;
27728;SDS011;15126;42.186;24.340;2023-04-03T06:38:48;10.37;;;7.43;;
27728;SDS011;15126;42.186;24.340;2023-04-03T06:41:16;10.40;;;8.07;;
27728;SDS011;15126;42.186;24.340;2023-04-03T06:43:43;11.50;;;8.90;;
27728;SDS011;15126;42.186;24.340;2023-04-03T06:46:14;14.77;;;8.70;;
27728;SDS011;15126;42.186;24.340;2023-04-03T06:48:42;18.10;;;10.53;;
27728;SDS011;15126;42.186;24.340;2023-04-03T06:51:13;12.97;;;7.77;;
27728;SDS011;15126;42.186;24.340;2023-04-03T06:53:45;18.50;;;8.90;;
27728;SDS011;15126;42.186;24.340;2023-04-03T06:56:12;10.10;;;7.30;;
27728;SDS011;15126;42.186;24.340;2023-04-03T06:58:41;11.60;;;6.77;;
27728;SDS011;15126;42.186;24.340;2023-04-03T07:01:08;8.40;;;6.03;;
27728;SDS011;15126;42.186;24.340;2023-04-03T07:03:35;9.57;;;6.70;;
27728;SDS011;15126;42.186;24.340;2023-04-03T07:06:03;22.60;;;11.20;;
27728;SDS011;15126;42.186;24.340;2023-04-03T07:08:31;34.97;;;15.47;;
27728;SDS011;15126;42.186;24.340;2023-04-03T07:10:58;11.53;;;8.03;;
27728;SDS011;15126;42.186;24.340;2023-04-03T07:13:25;11.00;;;7.10;;
27728;SDS011;15126;42.186;24.340;2023-04-03T07:15:53;7.87;;;6.97;;
27728;SDS011;15126;42.186;24.340;2023-04-03T07:18:20;9.93;;;7.13;;
27728;SDS011;15126;42.186;24.340;2023-04-03T07:20:47;7.70;;;6.90;;
27728;SDS011;15126;42.186;24.340;2023-04-03T07:23:14;10.53;;;6.30;;
27728;SDS011;15126;42.186;24.340;2023-04-03T07:25:42;7.63;;;5.30;;
27728;SDS011;15126;42.186;24.340;2023-04-03T07:28:10;8.77;;;6.00;;
27728;SDS011;15126;42.186;24.340;2023-04-03T07:30:42;7.83;;;7.07;;
27728;SDS011;15126;42.186;24.340;2023-04-03T07:33:12;8.00;;;6.23;;
27728;SDS011;15126;42.186;24.340;2023-04-03T07:35:40;5.30;;;4.47;;
27728;SDS011;15126;42.186;24.340;2023-04-03T07:38:07;104.17;;;66.37;;
27728;SDS011;15126;42.186;24.340;2023-04-03T07:40:34;27.87;;;16.83;;
27728;SDS011;15126;42.186;24.340;2023-04-03T07:43:02;9.40;;;5.90;;
27728;SDS011;15126;42.186;24.340;2023-04-03T07:45:29;8.77;;;6.53;;
27728;SDS011;15126;42.186;24.340;2023-04-03T07:47:56;11.17;;;6.53;;
27728;SDS011;15126;42.186;24.340;2023-04-03T07:50:24;8.93;;;7.63;;
27728;SDS011;15126;42.186;24.340;2023-04-03T07:52:52;17.00;;;8.13;;
27728;SDS011;15126;42.186;24.340;2023-04-03T07:55:21;11.03;;;7.10;;
27728;SDS011;15126;42.186;24.340;2023-04-03T07:57:48;9.37;;;8.00;;
27728;SDS011;15126;42.186;24.340;2023-04-03T08:00:16;12.10;;;7.10;;
27728;SDS011;15126;42.186;24.340;2023-04-03T08:02:44;9.27;;;7.83;;
27728;SDS011;15126;42.186;24.340;2023-04-03T08:05:15;10.27;;;6.83;;
27728;SDS011;15126;42.186;24.340;2023-04-03T08:07:43;15.23;;;7.73;;
27728;SDS011;15126;42.186;24.340;2023-04-03T08:10:10;6.77;;;5.73;;
27728;SDS011;15126;42.186;24.340;2023-04-03T08:12:37;8.00;;;7.13;;
27728;SDS011;15126;42.186;24.340;2023-04-03T08:15:04;6.97;;;5.73;;
27728;SDS011;15126;42.186;24.340;2023-04-03T08:17:32;9.40;;;6.83;;
27728;SDS011;15126;42.186;24.340;2023-04-03T08:19:59;9.07;;;5.80;;
27728;SDS011;15126;42.186;24.340;2023-04-03T08:22:26;7.57;;;5.60;;
27728;SDS011;15126;42.186;24.340;2023-04-03T08:24:54;9.77;;;6.50;;
27728;SDS011;15126;42.186;24.340;2023-04-03T08:27:21;15.73;;;8.77;;
27728;SDS011;15126;42.186;24.340;2023-04-03T08:29:48;8.33;;;7.43;;
27728;SDS011;15126;42.186;24.340;2023-04-03T08:32:15;6.50;;;5.80;;
27728;SDS011;15126;42.186;24.340;2023-04-03T08:34:43;7.10;;;6.40;;
27728;SDS011;15126;42.186;24.340;2023-04-03T08:37:09;6.57;;;5.97;;
27728;SDS011;15126;42.186;24.340;2023-04-03T08:39:36;9.83;;;6.10;;
27728;SDS011;15126;42.186;24.340;2023-04-03T08:42:05;5.70;;;4.77;;
27728;SDS011;15126;42.186;24.340;2023-04-03T08:44:45;7.50;;;5.63;;
27728;SDS011;15126;42.186;24.340;2023-04-03T08:47:18;9.00;;;4.87;;
27728;SDS011;15126;42.186;24.340;2023-04-03T08:49:51;6.67;;;5.43;;
27728;SDS011;15126;42.186;24.340;2023-04-03T08:52:20;6.07;;;5.03;;
27728;SDS011;15126;42.186;24.340;2023-04-03T08:54:55;8.83;;;5.40;;
27728;SDS011;15126;42.186;24.340;2023-04-03T08:57:28;6.70;;;5.20;;
27728;SDS011;15126;42.186;24.340;2023-04-03T08:59:57;6.87;;;5.37;;
27728;SDS011;15126;42.186;24.340;2023-04-03T09:02:33;9.50;;;5.83;;
27728;SDS011;15126;42.186;24.340;2023-04-03T09:05:01;7.43;;;5.53;;
27728;SDS011;15126;42.186;24.340;2023-04-03T09:07:37;6.70;;;4.97;;
27728;SDS011;15126;42.186;24.340;2023-04-03T09:10:08;8.13;;;5.93;;
27728;SDS011;15126;42.186;24.340;2023-04-03T09:12:41;5.80;;;5.30;;
27728;SDS011;15126;42.186;24.340;2023-04-03T09:15:15;7.20;;;6.00;;
27728;SDS011;15126;42.186;24.340;2023-04-03T09:17:47;7.60;;;6.13;;
27728;SDS011;15126;42.186;24.340;2023-04-03T09:20:23;12.50;;;7.70;;
27728;SDS011;15126;42.186;24.340;2023-04-03T09:22:57;6.67;;;4.83;;
27728;SDS011;15126;42.186;24.340;2023-04-03T09:25:25;5.00;;;4.27;;
27728;SDS011;15126;42.186;24.340;2023-04-03T09:27:55;5.87;;;4.97;;
27728;SDS011;15126;42.186;24.340;2023-04-03T09:30:23;7.97;;;5.60;;
27728;SDS011;15126;42.186;24.340;2023-04-03T09:32:51;5.83;;;5.13;;
27728;SDS011;15126;42.186;24.340;2023-04-03T09:35:21;6.90;;;5.90;;
27728;SDS011;15126;42.186;24.340;2023-04-03T09:37:50;20.73;;;14.80;;
27728;SDS011;15126;42.186;24.340;2023-04-03T09:40:28;7.37;;;5.87;;
27728;SDS011;15126;42.186;24.340;2023-04-03T09:45:48;6.57;;;5.97;;
27728;SDS011;15126;42.186;24.340;2023-04-03T09:48:18;4.47;;;4.07;;
27728;SDS011;15126;42.186;24.340;2023-04-03T09:50:58;6.57;;;5.77;;
27728;SDS011;15126;42.186;24.340;2023-04-03T09:53:32;14.63;;;5.03;;
27728;SDS011;15126;42.186;24.340;2023-04-03T09:56:02;8.23;;;4.23;;
27728;SDS011;15126;42.186;24.340;2023-04-03T09:58:33;7.33;;;6.63;;
27728;SDS011;15126;42.186;24.340;2023-04-03T10:01:04;9.00;;;7.93;;
27728;SDS011;15126;42.186;24.340;2023-04-03T10:03:32;5.97;;;4.33;;
27728;SDS011;15126;42.186;24.340;2023-04-03T10:06:01;7.27;;;6.30;;
27728;SDS011;15126;42.186;24.340;2023-04-03T10:08:30;4.07;;;3.73;;
27728;SDS011;15126;42.186;24.340;2023-04-03T10:11:05;5.13;;;4.63;;
27728;SDS011;15126;42.186;24.340;2023-04-03T10:13:51;5.10;;;4.60;;
27728;SDS011;15126;42.186;24.340;2023-04-03T10:16:21;7.07;;;4.57;;
27728;SDS011;15126;42.186;24.340;2023-04-03T10:19:03;3.63;;;3.33;;
27728;SDS011;15126;42.186;24.340;2023-04-03T10:21:40;11.63;;;4.50;;
27728;SDS011;15126;42.186;24.340;2023-04-03T10:24:16;4.37;;;3.97;;
27728;SDS011;15126;42.186;24.340;2023-04-03T10:26:50;5.50;;;3.40;;
27728;SDS011;15126;42.186;24.340;2023-04-03T10:29:30;3.30;;;3.03;;
27728;SDS011;15126;42.186;24.340;2023-04-03T10:32:08;3.30;;;3.00;;
27728;SDS011;15126;42.186;24.340;2023-04-03T10:34:54;4.37;;;3.90;;
27728;SDS011;15126;42.186;24.340;2023-04-03T10:37:34;7.13;;;4.07;;
27728;SDS011;15126;42.186;24.340;2023-04-03T10:40:15;3.97;;;3.23;;
27728;SDS011;15126;42.186;24.340;2023-04-03T10:42:51;20.20;;;11.60;;
27728;SDS011;15126;42.186;24.340;2023-04-03T10:45:26;10.07;;;8.00;;
27728;SDS011;15126;42.186;24.340;2023-04-03T10:48:00;6.17;;;5.17;;
27728;SDS011;15126;42.186;24.340;2023-04-03T10:50:37;10.83;;;9.20;;
27728;SDS011;15126;42.186;24.340;2023-04-03T10:53:11;5.70;;;5.20;;
27728;SDS011;15126;42.186;24.340;2023-04-03T10:55:49;4.33;;;3.90;;
27728;SDS011;15126;42.186;24.340;2023-04-03T10:58:21;5.47;;;4.13;;
27728;SDS011;15126;42.186;24.340;2023-04-03T11:01:01;3.87;;;3.27;;
27728;SDS011;15126;42.186;24.340;2023-04-03T11:03:34;5.70;;;4.47;;
27728;SDS011;15126;42.186;24.340;2023-04-03T11:06:06;5.50;;;4.23;;
27728;SDS011;15126;42.186;24.340;2023-04-03T11:08:37;4.83;;;4.40;;
27728;SDS011;15126;42.186;24.340;2023-04-03T11:11:09;11.40;;;8.70;;
27728;SDS011;15126;42.186;24.340;2023-04-03T11:13:40;6.93;;;5.33;;
27728;SDS011;15126;42.186;24.340;2023-04-03T11:16:14;8.20;;;7.30;;
27728;SDS011;15126;42.186;24.340;2023-04-03T11:18:46;15.47;;;12.40;;
27728;SDS011;15126;42.186;24.340;2023-04-03T11:21:19;17.93;;;11.63;;
27728;SDS011;15126;42.186;24.340;2023-04-03T11:23:49;9.47;;;7.20;;
27728;SDS011;15126;42.186;24.340;2023-04-03T11:26:19;11.33;;;7.90;;
27728;SDS011;15126;42.186;24.340;2023-04-03T11:28:51;5.67;;;5.00;;
27728;SDS011;15126;42.186;24.340;2023-04-03T11:31:26;5.87;;;4.77;;
27728;SDS011;15126;42.186;24.340;2023-04-03T11:34:02;11.53;;;9.40;;
27728;SDS011;15126;42.186;24.340;2023-04-03T11:36:39;70.77;;;56.37;;
27728;SDS011;15126;42.186;24.340;2023-04-03T11:39:25;9.83;;;8.83;;
27728;SDS011;15126;42.186;24.340;2023-04-03T11:41:54;11.80;;;7.57;;
27728;SDS011;15126;42.186;24.340;2023-04-03T11:44:29;14.80;;;11.33;;
27728;SDS011;15126;42.186;24.340;2023-04-03T11:47:01;11.97;;;9.93;;
27728;SDS011;15126;42.186;24.340;2023-04-03T11:55:51;26.47;;;19.77;;
27728;SDS011;15126;42.186;24.340;2023-04-03T11:58:21;15.50;;;12.10;;
27728;SDS011;15126;42.186;24.340;2023-04-03T12:00:49;14.07;;;12.50;;
27728;SDS011;15126;42.186;24.340;2023-04-03T12:12:28;23.23;;;18.77;;
27728;SDS011;15126;42.186;24.340;2023-04-03T12:15:11;18.53;;;13.07;;
27728;SDS011;15126;42.186;24.340;2023-04-03T12:17:44;16.33;;;13.77;;
27728;SDS011;15126;42.186;24.340;2023-04-03T12:23:23;27.03;;;19.30;;
27728;SDS011;15126;42.186;24.340;2023-04-03T12:25:52;24.97;;;18.97;;
27728;SDS011;15126;42.186;24.340;2023-04-03T12:28:29;22.27;;;18.23;;
27728;SDS011;15126;42.186;24.340;2023-04-03T12:30:56;20.70;;;17.03;;
27728;SDS011;15126;42.186;24.340;2023-04-03T12:33:27;24.33;;;21.00;;
27728;SDS011;15126;42.186;24.340;2023-04-03T12:36:06;34.50;;;24.57;;
27728;SDS011;15126;42.186;24.340;2023-04-03T12:38:51;25.73;;;19.27;;
27728;SDS011;15126;42.186;24.340;2023-04-03T12:41:38;11.27;;;10.10;;
27728;SDS011;15126;42.186;24.340;2023-04-03T12:44:20;12.90;;;11.37;;
27728;SDS011;15126;42.186;24.340;2023-04-03T12:47:19;86.03;;;42.53;;
27728;SDS011;15126;42.186;24.340;2023-04-03T12:49:50;79.93;;;36.83;;
27728;SDS011;15126;42.186;24.340;2023-04-03T12:52:25;84.50;;;40.60;;
27728;SDS011;15126;42.186;24.340;2023-04-03T12:55:02;109.27;;;50.87;;
27728;SDS011;15126;42.186;24.340;2023-04-03T12:57:36;41.53;;;20.73;;
27728;SDS011;15126;42.186;24.340;2023-04-03T13:00:18;34.53;;;19.83;;
27728;SDS011;15126;42.186;24.340;2023-04-03T13:02:53;31.17;;;20.50;;
27728;SDS011;15126;42.186;24.340;2023-04-03T13:05:20;115.43;;;52.03;;
27728;SDS011;15126;42.186;24.340;2023-04-03T13:07:49;80.27;;;39.10;;
27728;SDS011;15126;42.186;24.340;2023-04-03T13:10:22;35.73;;;23.50;;
27728;SDS011;15126;42.186;24.340;2023-04-03T13:12:54;48.30;;;30.93;;
27728;SDS011;15126;42.186;24.340;2023-04-03T13:15:23;62.83;;;36.13;;
27728;SDS011;15126;42.186;24.340;2023-04-03T13:17:51;88.03;;;49.33;;
27728;SDS011;15126;42.186;24.340;2023-04-03T13:20:28;41.90;;;26.73;;
27728;SDS011;15126;42.186;24.340;2023-04-03T13:22:57;23.00;;;16.10;;
27728;SDS011;15126;42.186;24.340;2023-04-03T13:25:28;51.33;;;31.63;;
27728;SDS011;15126;42.186;24.340;2023-04-03T13:27:59;29.07;;;23.03;;
27728;SDS011;15126;42.186;24.340;2023-04-03T13:30:29;22.10;;;18.23;;
27728;SDS011;15126;42.186;24.340;2023-04-03T13:33:02;57.03;;;26.83;;
27728;SDS011;15126;42.186;24.340;2023-04-03T13:35:33;24.10;;;16.77;;
27728;SDS011;15126;42.186;24.340;2023-04-03T13:38:03;73.40;;;44.83;;
27728;SDS011;15126;42.186;24.340;2023-04-03T13:40:48;51.93;;;31.20;;
27728;SDS011;15126;42.186;24.340;2023-04-03T13:43:20;28.53;;;21.70;;
27728;SDS011;15126;42.186;24.340;2023-04-03T13:45:53;15.93;;;12.30;;
27728;SDS011;15126;42.186;24.340;2023-04-03T13:48:24;10.83;;;9.73;;
27728;SDS011;15126;42.186;24.340;2023-04-03T13:50:58;22.90;;;16.43;;
27728;SDS011;15126;42.186;24.340;2023-04-03T13:53:27;20.17;;;13.90;;
27728;SDS011;15126;42.186;24.340;2023-04-03T13:55:57;35.97;;;23.63;;
27728;SDS011;15126;42.186;24.340;2023-04-03T13:58:32;37.50;;;25.60;;
27728;SDS011;15126;42.186;24.340;2023-04-03T14:01:01;24.60;;;18.83;;
27728;SDS011;15126;42.186;24.340;2023-04-03T14:03:38;22.13;;;16.63;;
27728;SDS011;15126;42.186;24.340;2023-04-03T14:06:08;24.03;;;17.53;;
27728;SDS011;15126;42.186;24.340;2023-04-03T14:08:38;19.30;;;16.00;;
27728;SDS011;15126;42.186;24.340;2023-04-03T14:11:08;10.40;;;9.40;;
27728;SDS011;15126;42.186;24.340;2023-04-03T14:13:40;10.67;;;9.67;;
27728;SDS011;15126;42.186;24.340;2023-04-03T14:16:11;11.50;;;10.30;;
27728;SDS011;15126;42.186;24.340;2023-04-03T14:18:40;10.67;;;9.10;;
27728;SDS011;15126;42.186;24.340;2023-04-03T14:21:08;12.97;;;11.70;;
27728;SDS011;15126;42.186;24.340;2023-04-03T14:23:37;20.33;;;14.37;;
27728;SDS011;15126;42.186;24.340;2023-04-03T14:26:04;19.83;;;15.20;;
27728;SDS011;15126;42.186;24.340;2023-04-03T14:28:32;15.67;;;13.90;;
27728;SDS011;15126;42.186;24.340;2023-04-03T14:31:04;28.13;;;24.80;;
27728;SDS011;15126;42.186;24.340;2023-04-03T14:33:32;36.27;;;32.40;;
27728;SDS011;15126;42.186;24.340;2023-04-03T14:39:27;28.73;;;24.07;;
27728;SDS011;15126;42.186;24.340;2023-04-03T14:41:55;34.70;;;31.10;;
27728;SDS011;15126;42.186;24.340;2023-04-03T14:44:22;38.90;;;34.77;;
27728;SDS011;15126;42.186;24.340;2023-04-03T14:46:50;51.77;;;42.43;;
27728;SDS011;15126;42.186;24.340;2023-04-03T14:49:18;36.90;;;30.33;;
27728;SDS011;15126;42.186;24.340;2023-04-03T14:51:49;21.10;;;18.90;;
27728;SDS011;15126;42.186;24.340;2023-04-03T14:54:18;23.73;;;21.07;;
27728;SDS011;15126;42.186;24.340;2023-04-03T14:56:55;24.77;;;21.87;;
27728;SDS011;15126;42.186;24.340;2023-04-03T14:59:23;32.20;;;27.53;;
27728;SDS011;15126;42.186;24.340;2023-04-03T15:01:52;25.07;;;22.03;;
27728;SDS011;15126;42.186;24.340;2023-04-03T15:04:22;32.00;;;22.77;;
27728;SDS011;15126;42.186;24.340;2023-04-03T15:06:56;19.53;;;16.23;;
27728;SDS011;15126;42.186;24.340;2023-04-03T15:09:23;18.80;;;16.80;;